sensor_id;sensor_type;location;lat;lon;timestamp;P1;durP1;ratioP1;P2;durP2;ratioP2
39400;SDS011;54391;50.000;7.360;2022-12-07T00:01:58;6.30;;;4.35;;
39400;SDS011;54391;50.000;7.360;2022-12-07T00:04:28;7.55;;;4.43;;
39400;SDS011;54391;50.000;7.360;2022-12-07T00:06:56;7.32;;;4.72;;
39400;SDS011;54391;50.000;7.360;2022-12-07T00:09:23;6.47;;;4.28;;
39400;SDS011;54391;50.000;7.360;2022-12-07T00:11:51;11.88;;;8.02;;
39400;SDS011;54391;50.000;7.360;2022-12-07T00:14:18;8.57;;;4.95;;
39400;SDS011;54391;50.000;7.360;2022-12-07T00:16:48;7.53;;;4.55;;
39400;SDS011;54391;50.000;7.360;2022-12-07T00:19:16;8.35;;;5.43;;
39400;SDS011;54391;50.000;7.360;2022-12-07T00:21:45;8.07;;;5.15;;
39400;SDS011;54391;50.000;7.360;2022-12-07T00:24:13;7.95;;;5.63;;
39400;SDS011;54391;50.000;7.360;2022-12-07T00:26:41;8.75;;;5.20;;
39400;SDS011;54391;50.000;7.360;2022-12-07T00:29:12;10.98;;;6.45;;
39400;SDS011;54391;50.000;7.360;2022-12-07T00:31:42;8.68;;;5.38;;
39400;SDS011;54391;50.000;7.360;2022-12-07T00:34:12;8.38;;;4.72;;
39400;SDS011;54391;50.000;7.360;2022-12-07T00:36:41;7.28;;;4.70;;
39400;SDS011;54391;50.000;7.360;2022-12-07T00:39:10;9.02;;;5.35;;
39400;SDS011;54391;50.000;7.360;2022-12-07T00:41:38;8.40;;;5.32;;
39400;SDS011;54391;50.000;7.360;2022-12-07T00:44:05;7.85;;;4.55;;
39400;SDS011;54391;50.000;7.360;2022-12-07T00:46:33;11.70;;;8.45;;
39400;SDS011;54391;50.000;7.360;2022-12-07T00:49:00;9.38;;;6.07;;
39400;SDS011;54391;50.000;7.360;2022-12-07T00:51:28;9.35;;;5.63;;
39400;SDS011;54391;50.000;7.360;2022-12-07T00:53:56;8.52;;;5.03;;
39400;SDS011;54391;50.000;7.360;2022-12-07T00:56:25;9.77;;;6.68;;
39400;SDS011;54391;50.000;7.360;2022-12-07T00:58:55;9.70;;;6.80;;
39400;SDS011;54391;50.000;7.360;2022-12-07T01:01:24;7.93;;;4.90;;
39400;SDS011;54391;50.000;7.360;2022-12-07T01:03:52;11.77;;;8.68;;
39400;SDS011;54391;50.000;7.360;2022-12-07T01:06:20;11.70;;;8.55;;
39400;SDS011;54391;50.000;7.360;2022-12-07T01:08:49;9.15;;;5.25;;
39400;SDS011;54391;50.000;7.360;2022-12-07T01:11:18;10.77;;;6.25;;
39400;SDS011;54391;50.000;7.360;2022-12-07T01:13:48;9.18;;;5.80;;
39400;SDS011;54391;50.000;7.360;2022-12-07T01:16:16;10.02;;;7.30;;
39400;SDS011;54391;50.000;7.360;2022-12-07T01:18:45;11.75;;;7.47;;
39400;SDS011;54391;50.000;7.360;2022-12-07T01:21:14;7.38;;;5.10;;
39400;SDS011;54391;50.000;7.360;2022-12-07T01:23:43;9.27;;;5.30;;
39400;SDS011;54391;50.000;7.360;2022-12-07T01:26:11;8.00;;;5.07;;
39400;SDS011;54391;50.000;7.360;2022-12-07T01:28:40;11.05;;;8.05;;
39400;SDS011;54391;50.000;7.360;2022-12-07T01:31:10;10.60;;;6.85;;
39400;SDS011;54391;50.000;7.360;2022-12-07T01:33:40;8.25;;;5.40;;
39400;SDS011;54391;50.000;7.360;2022-12-07T01:36:12;9.13;;;5.00;;
39400;SDS011;54391;50.000;7.360;2022-12-07T01:38:41;11.20;;;7.45;;
39400;SDS011;54391;50.000;7.360;2022-12-07T01:41:09;11.25;;;6.38;;
39400;SDS011;54391;50.000;7.360;2022-12-07T01:44:06;12.52;;;9.13;;
39400;SDS011;54391;50.000;7.360;2022-12-07T01:46:42;10.48;;;7.90;;
39400;SDS011;54391;50.000;7.360;2022-12-07T01:49:12;12.38;;;7.55;;
39400;SDS011;54391;50.000;7.360;2022-12-07T01:51:42;10.35;;;7.65;;
39400;SDS011;54391;50.000;7.360;2022-12-07T01:54:11;9.70;;;6.32;;
39400;SDS011;54391;50.000;7.360;2022-12-07T01:56:41;10.20;;;5.88;;
39400;SDS011;54391;50.000;7.360;2022-12-07T01:59:16;12.73;;;8.52;;
39400;SDS011;54391;50.000;7.360;2022-12-07T02:01:46;8.90;;;6.30;;
39400;SDS011;54391;50.000;7.360;2022-12-07T02:04:14;13.55;;;6.95;;
39400;SDS011;54391;50.000;7.360;2022-12-07T02:06:42;12.77;;;8.13;;
39400;SDS011;54391;50.000;7.360;2022-12-07T02:09:10;9.48;;;5.32;;
39400;SDS011;54391;50.000;7.360;2022-12-07T02:11:38;11.23;;;7.45;;
39400;SDS011;54391;50.000;7.360;2022-12-07T02:14:07;10.70;;;7.40;;
39400;SDS011;54391;50.000;7.360;2022-12-07T02:16:37;12.30;;;7.93;;
39400;SDS011;54391;50.000;7.360;2022-12-07T02:22:15;14.55;;;10.52;;
39400;SDS011;54391;50.000;7.360;2022-12-07T02:25:04;14.00;;;9.02;;
39400;SDS011;54391;50.000;7.360;2022-12-07T02:27:43;11.85;;;7.68;;
39400;SDS011;54391;50.000;7.360;2022-12-07T02:30:15;12.13;;;8.68;;
39400;SDS011;54391;50.000;7.360;2022-12-07T02:32:48;13.43;;;10.15;;
39400;SDS011;54391;50.000;7.360;2022-12-07T02:35:23;10.95;;;8.00;;
39400;SDS011;54391;50.000;7.360;2022-12-07T02:37:58;11.25;;;8.00;;
39400;SDS011;54391;50.000;7.360;2022-12-07T02:40:31;12.35;;;8.75;;
39400;SDS011;54391;50.000;7.360;2022-12-07T02:43:06;14.35;;;10.32;;
39400;SDS011;54391;50.000;7.360;2022-12-07T02:45:38;13.18;;;9.15;;
39400;SDS011;54391;50.000;7.360;2022-12-07T02:48:08;12.88;;;9.57;;
39400;SDS011;54391;50.000;7.360;2022-12-07T02:50:38;15.02;;;10.05;;
39400;SDS011;54391;50.000;7.360;2022-12-07T02:55:56;11.18;;;8.23;;
39400;SDS011;54391;50.000;7.360;2022-12-07T02:58:27;8.63;;;6.10;;
39400;SDS011;54391;50.000;7.360;2022-12-07T03:01:07;14.25;;;10.13;;
39400;SDS011;54391;50.000;7.360;2022-12-07T03:03:41;11.60;;;8.82;;
39400;SDS011;54391;50.000;7.360;2022-12-07T03:06:16;13.05;;;9.48;;
39400;SDS011;54391;50.000;7.360;2022-12-07T03:08:51;13.88;;;10.32;;
39400;SDS011;54391;50.000;7.360;2022-12-07T03:11:23;8.18;;;4.95;;
39400;SDS011;54391;50.000;7.360;2022-12-07T03:13:56;9.88;;;7.22;;
39400;SDS011;54391;50.000;7.360;2022-12-07T03:16:33;13.93;;;9.68;;
39400;SDS011;54391;50.000;7.360;2022-12-07T03:19:05;10.00;;;7.32;;
39400;SDS011;54391;50.000;7.360;2022-12-07T03:21:37;14.35;;;10.77;;
39400;SDS011;54391;50.000;7.360;2022-12-07T03:24:08;14.75;;;9.05;;
39400;SDS011;54391;50.000;7.360;2022-12-07T03:26:38;8.57;;;5.82;;
39400;SDS011;54391;50.000;7.360;2022-12-07T03:29:11;11.73;;;7.63;;
39400;SDS011;54391;50.000;7.360;2022-12-07T03:31:45;11.48;;;7.55;;
39400;SDS011;54391;50.000;7.360;2022-12-07T03:34:19;17.15;;;11.27;;
39400;SDS011;54391;50.000;7.360;2022-12-07T03:36:52;13.10;;;9.07;;
39400;SDS011;54391;50.000;7.360;2022-12-07T03:39:28;13.85;;;10.15;;
39400;SDS011;54391;50.000;7.360;2022-12-07T03:42:00;8.93;;;6.45;;
39400;SDS011;54391;50.000;7.360;2022-12-07T03:44:30;8.25;;;6.32;;
39400;SDS011;54391;50.000;7.360;2022-12-07T03:47:01;9.75;;;6.57;;
39400;SDS011;54391;50.000;7.360;2022-12-07T03:49:32;8.90;;;6.18;;
39400;SDS011;54391;50.000;7.360;2022-12-07T03:52:09;14.05;;;10.05;;
39400;SDS011;54391;50.000;7.360;2022-12-07T03:54:44;14.52;;;10.40;;
39400;SDS011;54391;50.000;7.360;2022-12-07T03:57:16;19.60;;;11.88;;
39400;SDS011;54391;50.000;7.360;2022-12-07T03:59:45;15.95;;;9.52;;
39400;SDS011;54391;50.000;7.360;2022-12-07T04:02:15;12.02;;;8.05;;
39400;SDS011;54391;50.000;7.360;2022-12-07T04:04:43;16.75;;;10.75;;
39400;SDS011;54391;50.000;7.360;2022-12-07T04:07:11;13.27;;;9.38;;
39400;SDS011;54391;50.000;7.360;2022-12-07T04:09:38;13.43;;;9.50;;
39400;SDS011;54391;50.000;7.360;2022-12-07T04:12:06;12.27;;;8.57;;
39400;SDS011;54391;50.000;7.360;2022-12-07T04:14:33;15.02;;;9.50;;
39400;SDS011;54391;50.000;7.360;2022-12-07T04:17:01;16.95;;;10.85;;
39400;SDS011;54391;50.000;7.360;2022-12-07T04:19:30;11.70;;;7.85;;
39400;SDS011;54391;50.000;7.360;2022-12-07T04:22:00;11.73;;;8.65;;
39400;SDS011;54391;50.000;7.360;2022-12-07T04:24:30;13.15;;;8.80;;
39400;SDS011;54391;50.000;7.360;2022-12-07T04:26:57;12.60;;;8.32;;
39400;SDS011;54391;50.000;7.360;2022-12-07T04:29:25;12.00;;;8.30;;
39400;SDS011;54391;50.000;7.360;2022-12-07T04:31:53;12.95;;;8.90;;
39400;SDS011;54391;50.000;7.360;2022-12-07T04:34:20;12.65;;;9.65;;
39400;SDS011;54391;50.000;7.360;2022-12-07T04:36:49;13.52;;;9.60;;
39400;SDS011;54391;50.000;7.360;2022-12-07T04:39:19;14.02;;;9.75;;
39400;SDS011;54391;50.000;7.360;2022-12-07T04:41:48;12.63;;;8.68;;
39400;SDS011;54391;50.000;7.360;2022-12-07T04:44:15;12.75;;;8.50;;
39400;SDS011;54391;50.000;7.360;2022-12-07T04:46:43;13.18;;;10.18;;
39400;SDS011;54391;50.000;7.360;2022-12-07T04:49:12;12.73;;;9.88;;
39400;SDS011;54391;50.000;7.360;2022-12-07T04:51:40;14.05;;;9.93;;
39400;SDS011;54391;50.000;7.360;2022-12-07T04:54:10;12.07;;;7.97;;
39400;SDS011;54391;50.000;7.360;2022-12-07T04:56:38;14.75;;;10.60;;
39400;SDS011;54391;50.000;7.360;2022-12-07T04:59:05;13.07;;;10.00;;
39400;SDS011;54391;50.000;7.360;2022-12-07T05:01:33;14.75;;;10.45;;
39400;SDS011;54391;50.000;7.360;2022-12-07T05:04:01;13.52;;;9.65;;
39400;SDS011;54391;50.000;7.360;2022-12-07T05:06:29;15.07;;;10.15;;
39400;SDS011;54391;50.000;7.360;2022-12-07T05:08:56;14.07;;;8.57;;
39400;SDS011;54391;50.000;7.360;2022-12-07T05:11:25;11.38;;;8.63;;
39400;SDS011;54391;50.000;7.360;2022-12-07T05:14:05;13.40;;;10.25;;
39400;SDS011;54391;50.000;7.360;2022-12-07T05:16:35;16.42;;;11.25;;
39400;SDS011;54391;50.000;7.360;2022-12-07T05:19:03;15.38;;;9.57;;
39400;SDS011;54391;50.000;7.360;2022-12-07T05:21:30;14.63;;;9.77;;
39400;SDS011;54391;50.000;7.360;2022-12-07T05:23:58;14.35;;;9.23;;
39400;SDS011;54391;50.000;7.360;2022-12-07T05:26:29;23.00;;;11.18;;
39400;SDS011;54391;50.000;7.360;2022-12-07T05:28:56;15.95;;;10.75;;
39400;SDS011;54391;50.000;7.360;2022-12-07T05:31:24;12.27;;;8.93;;
39400;SDS011;54391;50.000;7.360;2022-12-07T05:33:53;14.50;;;9.60;;
39400;SDS011;54391;50.000;7.360;2022-12-07T05:36:21;16.30;;;10.40;;
39400;SDS011;54391;50.000;7.360;2022-12-07T05:38:49;15.70;;;9.32;;
39400;SDS011;54391;50.000;7.360;2022-12-07T05:41:17;35.22;;;13.45;;
39400;SDS011;54391;50.000;7.360;2022-12-07T05:44:04;16.77;;;9.90;;
39400;SDS011;54391;50.000;7.360;2022-12-07T05:46:32;14.93;;;10.55;;
39400;SDS011;54391;50.000;7.360;2022-12-07T05:49:00;14.15;;;9.65;;
39400;SDS011;54391;50.000;7.360;2022-12-07T05:51:29;15.13;;;11.50;;
39400;SDS011;54391;50.000;7.360;2022-12-07T05:53:57;13.48;;;8.25;;
39400;SDS011;54391;50.000;7.360;2022-12-07T05:56:24;15.98;;;10.15;;
39400;SDS011;54391;50.000;7.360;2022-12-07T05:58:53;20.88;;;11.75;;
39400;SDS011;54391;50.000;7.360;2022-12-07T06:01:39;25.52;;;11.32;;
39400;SDS011;54391;50.000;7.360;2022-12-07T06:04:06;13.52;;;8.27;;
39400;SDS011;54391;50.000;7.360;2022-12-07T06:06:34;24.65;;;11.90;;
39400;SDS011;54391;50.000;7.360;2022-12-07T06:09:02;17.67;;;11.70;;
39400;SDS011;54391;50.000;7.360;2022-12-07T06:11:30;13.65;;;10.50;;
39400;SDS011;54391;50.000;7.360;2022-12-07T06:14:14;21.48;;;12.38;;
39400;SDS011;54391;50.000;7.360;2022-12-07T06:16:43;19.88;;;12.57;;
39400;SDS011;54391;50.000;7.360;2022-12-07T06:19:11;17.08;;;11.57;;
39400;SDS011;54391;50.000;7.360;2022-12-07T06:21:38;15.98;;;10.27;;
39400;SDS011;54391;50.000;7.360;2022-12-07T06:24:06;13.25;;;9.30;;
39400;SDS011;54391;50.000;7.360;2022-12-07T06:26:34;29.35;;;13.07;;
39400;SDS011;54391;50.000;7.360;2022-12-07T06:29:01;16.40;;;10.80;;
39400;SDS011;54391;50.000;7.360;2022-12-07T06:31:29;15.77;;;10.77;;
39400;SDS011;54391;50.000;7.360;2022-12-07T06:33:58;11.88;;;8.07;;
39400;SDS011;54391;50.000;7.360;2022-12-07T06:36:27;10.57;;;7.95;;
39400;SDS011;54391;50.000;7.360;2022-12-07T06:38:55;12.43;;;9.35;;
39400;SDS011;54391;50.000;7.360;2022-12-07T06:41:23;12.65;;;9.25;;
39400;SDS011;54391;50.000;7.360;2022-12-07T06:43:50;12.38;;;8.77;;
39400;SDS011;54391;50.000;7.360;2022-12-07T06:46:17;10.68;;;6.80;;
39400;SDS011;54391;50.000;7.360;2022-12-07T06:48:45;13.32;;;9.57;;
39400;SDS011;54391;50.000;7.360;2022-12-07T06:51:14;12.30;;;8.32;;
39400;SDS011;54391;50.000;7.360;2022-12-07T06:53:41;12.65;;;8.30;;
39400;SDS011;54391;50.000;7.360;2022-12-07T06:56:09;12.68;;;9.52;;
39400;SDS011;54391;50.000;7.360;2022-12-07T06:58:36;14.05;;;9.55;;
39400;SDS011;54391;50.000;7.360;2022-12-07T07:01:08;10.88;;;7.13;;
39400;SDS011;54391;50.000;7.360;2022-12-07T07:03:36;15.27;;;10.18;;
39400;SDS011;54391;50.000;7.360;2022-12-07T07:06:04;13.90;;;9.70;;
39400;SDS011;54391;50.000;7.360;2022-12-07T07:08:34;9.13;;;7.47;;
39400;SDS011;54391;50.000;7.360;2022-12-07T07:11:02;10.02;;;5.65;;
39400;SDS011;54391;50.000;7.360;2022-12-07T07:13:29;10.55;;;6.70;;
39400;SDS011;54391;50.000;7.360;2022-12-07T07:15:57;7.57;;;4.65;;
39400;SDS011;54391;50.000;7.360;2022-12-07T07:18:25;8.93;;;5.57;;
39400;SDS011;54391;50.000;7.360;2022-12-07T07:20:54;10.40;;;6.00;;
39400;SDS011;54391;50.000;7.360;2022-12-07T07:23:21;9.25;;;6.15;;
39400;SDS011;54391;50.000;7.360;2022-12-07T07:25:50;10.80;;;6.93;;
39400;SDS011;54391;50.000;7.360;2022-12-07T07:28:18;8.75;;;6.20;;
39400;SDS011;54391;50.000;7.360;2022-12-07T07:30:45;8.43;;;5.18;;
39400;SDS011;54391;50.000;7.360;2022-12-07T07:33:12;13.20;;;9.02;;
39400;SDS011;54391;50.000;7.360;2022-12-07T07:35:49;14.07;;;9.35;;
39400;SDS011;54391;50.000;7.360;2022-12-07T07:38:17;9.45;;;5.68;;
39400;SDS011;54391;50.000;7.360;2022-12-07T07:40:44;8.35;;;5.22;;
39400;SDS011;54391;50.000;7.360;2022-12-07T07:43:13;9.02;;;6.35;;
39400;SDS011;54391;50.000;7.360;2022-12-07T07:45:40;13.35;;;9.20;;
39400;SDS011;54391;50.000;7.360;2022-12-07T07:48:08;11.45;;;7.28;;
39400;SDS011;54391;50.000;7.360;2022-12-07T07:50:35;8.68;;;6.05;;
39400;SDS011;54391;50.000;7.360;2022-12-07T07:53:03;11.13;;;7.65;;
39400;SDS011;54391;50.000;7.360;2022-12-07T07:55:30;12.35;;;9.05;;
39400;SDS011;54391;50.000;7.360;2022-12-07T07:57:57;9.60;;;6.05;;
39400;SDS011;54391;50.000;7.360;2022-12-07T08:00:26;10.77;;;7.88;;
39400;SDS011;54391;50.000;7.360;2022-12-07T08:02:54;9.23;;;6.32;;
39400;SDS011;54391;50.000;7.360;2022-12-07T08:05:21;11.48;;;7.63;;
39400;SDS011;54391;50.000;7.360;2022-12-07T08:07:48;12.90;;;9.40;;
39400;SDS011;54391;50.000;7.360;2022-12-07T08:10:16;9.52;;;5.97;;
39400;SDS011;54391;50.000;7.360;2022-12-07T08:12:43;8.38;;;5.55;;
39400;SDS011;54391;50.000;7.360;2022-12-07T08:15:30;7.38;;;5.28;;
39400;SDS011;54391;50.000;7.360;2022-12-07T08:17:58;8.73;;;5.28;;
39400;SDS011;54391;50.000;7.360;2022-12-07T08:20:25;10.77;;;7.63;;
39400;SDS011;54391;50.000;7.360;2022-12-07T08:22:53;7.72;;;5.35;;
39400;SDS011;54391;50.000;7.360;2022-12-07T08:25:20;9.90;;;5.97;;
39400;SDS011;54391;50.000;7.360;2022-12-07T08:27:48;8.15;;;5.88;;
39400;SDS011;54391;50.000;7.360;2022-12-07T08:30:17;8.40;;;5.40;;
39400;SDS011;54391;50.000;7.360;2022-12-07T08:32:46;12.57;;;8.38;;
39400;SDS011;54391;50.000;7.360;2022-12-07T08:35:14;9.27;;;5.65;;
39400;SDS011;54391;50.000;7.360;2022-12-07T08:37:42;7.63;;;5.03;;
39400;SDS011;54391;50.000;7.360;2022-12-07T08:40:10;10.55;;;7.00;;
39400;SDS011;54391;50.000;7.360;2022-12-07T08:42:40;9.70;;;7.22;;
39400;SDS011;54391;50.000;7.360;2022-12-07T08:45:10;8.05;;;5.47;;
39400;SDS011;54391;50.000;7.360;2022-12-07T08:47:40;12.05;;;8.68;;
39400;SDS011;54391;50.000;7.360;2022-12-07T08:50:13;9.40;;;6.00;;
39400;SDS011;54391;50.000;7.360;2022-12-07T08:52:41;8.18;;;5.65;;
39400;SDS011;54391;50.000;7.360;2022-12-07T08:55:09;8.32;;;4.82;;
39400;SDS011;54391;50.000;7.360;2022-12-07T08:57:37;9.13;;;6.30;;
39400;SDS011;54391;50.000;7.360;2022-12-07T09:00:06;8.57;;;5.18;;
39400;SDS011;54391;50.000;7.360;2022-12-07T09:02:34;6.65;;;4.93;;
39400;SDS011;54391;50.000;7.360;2022-12-07T09:05:02;10.77;;;6.50;;
39400;SDS011;54391;50.000;7.360;2022-12-07T09:07:31;6.88;;;4.30;;
39400;SDS011;54391;50.000;7.360;2022-12-07T09:10:00;6.25;;;4.60;;
39400;SDS011;54391;50.000;7.360;2022-12-07T09:12:28;6.93;;;4.57;;
39400;SDS011;54391;50.000;7.360;2022-12-07T09:14:56;6.80;;;4.30;;
39400;SDS011;54391;50.000;7.360;2022-12-07T09:17:23;7.32;;;4.68;;
39400;SDS011;54391;50.000;7.360;2022-12-07T09:19:51;6.97;;;4.38;;
39400;SDS011;54391;50.000;7.360;2022-12-07T09:22:18;6.78;;;4.40;;
39400;SDS011;54391;50.000;7.360;2022-12-07T09:24:47;8.18;;;4.18;;
39400;SDS011;54391;50.000;7.360;2022-12-07T09:27:15;5.65;;;3.90;;
39400;SDS011;54391;50.000;7.360;2022-12-07T09:29:43;8.43;;;5.32;;
39400;SDS011;54391;50.000;7.360;2022-12-07T09:32:10;12.68;;;7.72;;
39400;SDS011;54391;50.000;7.360;2022-12-07T09:34:38;7.90;;;5.15;;
39400;SDS011;54391;50.000;7.360;2022-12-07T09:37:05;6.18;;;4.10;;
39400;SDS011;54391;50.000;7.360;2022-12-07T09:39:33;6.40;;;3.88;;
39400;SDS011;54391;50.000;7.360;2022-12-07T09:42:03;6.95;;;4.95;;
39400;SDS011;54391;50.000;7.360;2022-12-07T09:44:32;5.95;;;4.03;;
39400;SDS011;54391;50.000;7.360;2022-12-07T09:47:01;6.30;;;3.83;;
39400;SDS011;54391;50.000;7.360;2022-12-07T09:49:30;7.30;;;4.82;;
39400;SDS011;54391;50.000;7.360;2022-12-07T09:51:59;6.72;;;4.10;;
39400;SDS011;54391;50.000;7.360;2022-12-07T09:54:29;7.28;;;4.70;;
39400;SDS011;54391;50.000;7.360;2022-12-07T09:56:58;6.15;;;3.55;;
39400;SDS011;54391;50.000;7.360;2022-12-07T09:59:27;7.05;;;4.40;;
39400;SDS011;54391;50.000;7.360;2022-12-07T10:01:55;5.78;;;4.03;;
39400;SDS011;54391;50.000;7.360;2022-12-07T10:04:42;8.00;;;4.82;;
39400;SDS011;54391;50.000;7.360;2022-12-07T10:07:11;7.10;;;4.13;;
39400;SDS011;54391;50.000;7.360;2022-12-07T10:09:39;16.13;;;7.65;;
39400;SDS011;54391;50.000;7.360;2022-12-07T10:12:07;5.85;;;4.13;;
39400;SDS011;54391;50.000;7.360;2022-12-07T10:14:38;6.30;;;3.90;;
39400;SDS011;54391;50.000;7.360;2022-12-07T10:20:04;6.22;;;3.67;;
39400;SDS011;54391;50.000;7.360;2022-12-07T10:22:53;5.85;;;3.30;;
39400;SDS011;54391;50.000;7.360;2022-12-07T10:25:22;4.80;;;2.80;;
39400;SDS011;54391;50.000;7.360;2022-12-07T10:28:02;5.05;;;3.00;;
39400;SDS011;54391;50.000;7.360;2022-12-07T10:33:26;2.88;;;1.90;;
39400;SDS011;54391;50.000;7.360;2022-12-07T10:35:58;3.28;;;1.95;;
39400;SDS011;54391;50.000;7.360;2022-12-07T10:38:27;5.15;;;3.33;;
39400;SDS011;54391;50.000;7.360;2022-12-07T10:41:05;6.35;;;2.88;;
39400;SDS011;54391;50.000;7.360;2022-12-07T10:43:33;5.03;;;3.50;;
39400;SDS011;54391;50.000;7.360;2022-12-07T10:52:19;5.20;;;3.05;;
39400;SDS011;54391;50.000;7.360;2022-12-07T10:55:08;5.70;;;3.75;;
39400;SDS011;54391;50.000;7.360;2022-12-07T10:57:51;3.75;;;2.83;;
39400;SDS011;54391;50.000;7.360;2022-12-07T11:00:30;5.32;;;3.08;;
39400;SDS011;54391;50.000;7.360;2022-12-07T11:03:14;4.63;;;3.00;;
39400;SDS011;54391;50.000;7.360;2022-12-07T11:06:03;4.28;;;2.95;;
39400;SDS011;54391;50.000;7.360;2022-12-07T11:08:44;4.95;;;3.17;;
39400;SDS011;54391;50.000;7.360;2022-12-07T11:11:23;3.78;;;2.63;;
39400;SDS011;54391;50.000;7.360;2022-12-07T11:13:56;8.02;;;4.80;;
39400;SDS011;54391;50.000;7.360;2022-12-07T11:16:34;8.18;;;4.15;;
39400;SDS011;54391;50.000;7.360;2022-12-07T11:19:18;8.20;;;4.70;;
39400;SDS011;54391;50.000;7.360;2022-12-07T11:21:56;5.05;;;3.35;;
39400;SDS011;54391;50.000;7.360;2022-12-07T11:24:25;6.93;;;3.08;;
39400;SDS011;54391;50.000;7.360;2022-12-07T11:27:12;6.53;;;3.80;;
39400;SDS011;54391;50.000;7.360;2022-12-07T11:29:53;5.63;;;2.83;;
39400;SDS011;54391;50.000;7.360;2022-12-07T11:32:34;6.82;;;3.53;;
39400;SDS011;54391;50.000;7.360;2022-12-07T11:35:16;6.43;;;3.30;;
39400;SDS011;54391;50.000;7.360;2022-12-07T11:37:49;4.82;;;2.33;;
39400;SDS011;54391;50.000;7.360;2022-12-07T11:40:24;5.45;;;2.90;;
39400;SDS011;54391;50.000;7.360;2022-12-07T11:42:57;4.80;;;2.25;;
39400;SDS011;54391;50.000;7.360;2022-12-07T11:45:28;11.88;;;4.93;;
39400;SDS011;54391;50.000;7.360;2022-12-07T11:47:59;4.20;;;2.38;;
39400;SDS011;54391;50.000;7.360;2022-12-07T11:50:32;5.28;;;3.22;;
39400;SDS011;54391;50.000;7.360;2022-12-07T11:53:03;5.18;;;2.47;;
39400;SDS011;54391;50.000;7.360;2022-12-07T11:55:43;7.10;;;4.07;;
39400;SDS011;54391;50.000;7.360;2022-12-07T11:58:22;4.25;;;2.65;;
39400;SDS011;54391;50.000;7.360;2022-12-07T12:01:11;5.28;;;3.05;;
39400;SDS011;54391;50.000;7.360;2022-12-07T12:03:49;6.15;;;2.88;;
39400;SDS011;54391;50.000;7.360;2022-12-07T12:06:20;5.30;;;2.72;;
39400;SDS011;54391;50.000;7.360;2022-12-07T12:08:48;8.13;;;4.03;;
39400;SDS011;54391;50.000;7.360;2022-12-07T12:11:26;5.00;;;2.80;;
39400;SDS011;54391;50.000;7.360;2022-12-07T12:14:26;5.78;;;3.30;;
39400;SDS011;54391;50.000;7.360;2022-12-07T12:17:09;4.35;;;2.35;;
39400;SDS011;54391;50.000;7.360;2022-12-07T12:19:57;7.30;;;3.60;;
39400;SDS011;54391;50.000;7.360;2022-12-07T12:22:32;6.72;;;3.15;;
39400;SDS011;54391;50.000;7.360;2022-12-07T12:25:04;5.25;;;3.08;;
39400;SDS011;54391;50.000;7.360;2022-12-07T12:27:33;7.07;;;3.40;;
39400;SDS011;54391;50.000;7.360;2022-12-07T12:30:03;5.65;;;3.20;;
39400;SDS011;54391;50.000;7.360;2022-12-07T12:32:35;5.88;;;3.50;;
39400;SDS011;54391;50.000;7.360;2022-12-07T12:35:27;5.40;;;3.40;;
39400;SDS011;54391;50.000;7.360;2022-12-07T12:40:58;6.55;;;3.47;;
39400;SDS011;54391;50.000;7.360;2022-12-07T12:43:39;5.07;;;3.00;;
39400;SDS011;54391;50.000;7.360;2022-12-07T12:55:19;6.35;;;3.03;;
39400;SDS011;54391;50.000;7.360;2022-12-07T12:58:32;5.00;;;2.88;;
39400;SDS011;54391;50.000;7.360;2022-12-07T13:07:02;4.32;;;2.65;;
39400;SDS011;54391;50.000;7.360;2022-12-07T13:09:29;7.75;;;3.08;;
39400;SDS011;54391;50.000;7.360;2022-12-07T13:12:03;7.57;;;3.13;;
39400;SDS011;54391;50.000;7.360;2022-12-07T13:14:41;5.35;;;3.03;;
39400;SDS011;54391;50.000;7.360;2022-12-07T13:23:15;5.22;;;3.20;;
39400;SDS011;54391;50.000;7.360;2022-12-07T13:25:56;5.32;;;3.05;;
39400;SDS011;54391;50.000;7.360;2022-12-07T13:28:33;6.50;;;3.33;;
39400;SDS011;54391;50.000;7.360;2022-12-07T13:31:29;6.13;;;3.20;;
39400;SDS011;54391;50.000;7.360;2022-12-07T13:34:01;6.23;;;2.97;;
39400;SDS011;54391;50.000;7.360;2022-12-07T13:36:30;5.70;;;3.05;;
39400;SDS011;54391;50.000;7.360;2022-12-07T13:39:10;4.95;;;2.58;;
39400;SDS011;54391;50.000;7.360;2022-12-07T13:41:44;5.95;;;2.80;;
39400;SDS011;54391;50.000;7.360;2022-12-07T13:44:17;4.75;;;2.78;;
39400;SDS011;54391;50.000;7.360;2022-12-07T13:46:49;4.72;;;2.45;;
39400;SDS011;54391;50.000;7.360;2022-12-07T13:49:21;6.40;;;2.78;;
39400;SDS011;54391;50.000;7.360;2022-12-07T13:51:50;4.70;;;2.38;;
39400;SDS011;54391;50.000;7.360;2022-12-07T13:54:18;3.95;;;1.95;;
39400;SDS011;54391;50.000;7.360;2022-12-07T13:56:47;4.80;;;2.17;;
39400;SDS011;54391;50.000;7.360;2022-12-07T13:59:17;6.20;;;2.75;;
39400;SDS011;54391;50.000;7.360;2022-12-07T14:01:49;6.45;;;3.25;;
39400;SDS011;54391;50.000;7.360;2022-12-07T14:07:01;4.82;;;2.50;;
39400;SDS011;54391;50.000;7.360;2022-12-07T14:09:53;9.57;;;4.25;;
39400;SDS011;54391;50.000;7.360;2022-12-07T14:12:25;6.03;;;2.75;;
39400;SDS011;54391;50.000;7.360;2022-12-07T14:14:53;4.85;;;2.75;;
39400;SDS011;54391;50.000;7.360;2022-12-07T14:17:24;5.20;;;2.70;;
39400;SDS011;54391;50.000;7.360;2022-12-07T14:19:53;7.72;;;2.70;;
39400;SDS011;54391;50.000;7.360;2022-12-07T14:22:26;6.00;;;3.05;;
39400;SDS011;54391;50.000;7.360;2022-12-07T14:25:13;4.32;;;2.30;;
39400;SDS011;54391;50.000;7.360;2022-12-07T14:27:49;6.22;;;2.53;;
39400;SDS011;54391;50.000;7.360;2022-12-07T14:30:18;4.85;;;2.05;;
39400;SDS011;54391;50.000;7.360;2022-12-07T14:32:48;5.32;;;2.58;;
39400;SDS011;54391;50.000;7.360;2022-12-07T14:35:19;4.45;;;2.13;;
39400;SDS011;54391;50.000;7.360;2022-12-07T14:37:47;7.45;;;3.22;;
39400;SDS011;54391;50.000;7.360;2022-12-07T14:40:16;6.68;;;2.75;;
39400;SDS011;54391;50.000;7.360;2022-12-07T14:42:45;5.45;;;2.63;;
39400;SDS011;54391;50.000;7.360;2022-12-07T14:45:18;5.63;;;2.78;;
39400;SDS011;54391;50.000;7.360;2022-12-07T14:47:48;5.05;;;2.55;;
39400;SDS011;54391;50.000;7.360;2022-12-07T14:50:16;4.18;;;2.47;;
39400;SDS011;54391;50.000;7.360;2022-12-07T14:52:46;5.05;;;2.70;;
39400;SDS011;54391;50.000;7.360;2022-12-07T14:55:17;5.50;;;2.95;;
39400;SDS011;54391;50.000;7.360;2022-12-07T14:57:50;6.00;;;2.60;;
39400;SDS011;54391;50.000;7.360;2022-12-07T15:00:19;5.38;;;2.92;;
39400;SDS011;54391;50.000;7.360;2022-12-07T15:02:49;4.78;;;2.80;;
39400;SDS011;54391;50.000;7.360;2022-12-07T15:05:16;4.95;;;2.33;;
39400;SDS011;54391;50.000;7.360;2022-12-07T15:07:44;4.63;;;2.65;;
39400;SDS011;54391;50.000;7.360;2022-12-07T15:10:16;5.22;;;2.38;;
39400;SDS011;54391;50.000;7.360;2022-12-07T15:12:46;4.28;;;3.08;;
39400;SDS011;54391;50.000;7.360;2022-12-07T15:15:13;5.25;;;2.67;;
39400;SDS011;54391;50.000;7.360;2022-12-07T15:17:42;6.03;;;3.30;;
39400;SDS011;54391;50.000;7.360;2022-12-07T15:20:12;5.35;;;2.83;;
39400;SDS011;54391;50.000;7.360;2022-12-07T15:22:43;5.35;;;3.10;;
39400;SDS011;54391;50.000;7.360;2022-12-07T15:25:12;7.43;;;3.50;;
39400;SDS011;54391;50.000;7.360;2022-12-07T15:27:40;6.20;;;3.40;;
39400;SDS011;54391;50.000;7.360;2022-12-07T15:30:07;6.07;;;3.08;;
39400;SDS011;54391;50.000;7.360;2022-12-07T15:32:35;6.20;;;3.10;;
39400;SDS011;54391;50.000;7.360;2022-12-07T15:35:03;5.75;;;3.03;;
39400;SDS011;54391;50.000;7.360;2022-12-07T15:37:32;7.97;;;3.20;;
39400;SDS011;54391;50.000;7.360;2022-12-07T15:40:00;5.70;;;3.35;;
39400;SDS011;54391;50.000;7.360;2022-12-07T15:42:28;4.45;;;2.63;;
39400;SDS011;54391;50.000;7.360;2022-12-07T15:44:55;6.32;;;2.72;;
39400;SDS011;54391;50.000;7.360;2022-12-07T15:47:31;5.63;;;3.10;;
39400;SDS011;54391;50.000;7.360;2022-12-07T15:50:01;6.47;;;3.00;;